sensor_id;sensor_type;location;lat;lon;timestamp;temperature;humidity
51878;SHT31;37911;51.526;11.536;2022-10-16T00:01:37;16.18;81.95
51878;SHT31;37911;51.526;11.536;2022-10-16T00:04:41;16.11;82.23
51878;SHT31;37911;51.526;11.536;2022-10-16T00:07:45;16.09;82.28
51878;SHT31;37911;51.526;11.536;2022-10-16T00:10:51;16.01;82.27
51878;SHT31;37911;51.526;11.536;2022-10-16T00:13:57;15.95;82.37
51878;SHT31;37911;51.526;11.536;2022-10-16T00:17:02;15.94;82.53
51878;SHT31;37911;51.526;11.536;2022-10-16T00:20:07;15.88;82.62
51878;SHT31;37911;51.526;11.536;2022-10-16T00:23:11;15.84;82.92
51878;SHT31;37911;51.526;11.536;2022-10-16T00:26:18;15.84;82.98
51878;SHT31;37911;51.526;11.536;2022-10-16T00:29:22;15.78;83.22
51878;SHT31;37911;51.526;11.536;2022-10-16T00:32:26;15.84;83.55
51878;SHT31;37911;51.526;11.536;2022-10-16T00:35:30;15.82;83.37
51878;SHT31;37911;51.526;11.536;2022-10-16T00:38:34;15.85;83.52
51878;SHT31;37911;51.526;11.536;2022-10-16T00:41:41;15.85;83.35
51878;SHT31;37911;51.526;11.536;2022-10-16T00:44:47;15.80;83.08
51878;SHT31;37911;51.526;11.536;2022-10-16T00:47:56;15.68;83.15
51878;SHT31;37911;51.526;11.536;2022-10-16T00:51:00;15.62;83.24
51878;SHT31;37911;51.526;11.536;2022-10-16T00:54:08;15.50;83.34
51878;SHT31;37911;51.526;11.536;2022-10-16T00:57:15;15.44;83.68
51878;SHT31;37911;51.526;11.536;2022-10-16T01:00:22;15.31;83.95
51878;SHT31;37911;51.526;11.536;2022-10-16T01:03:28;15.31;84.50
51878;SHT31;37911;51.526;11.536;2022-10-16T01:06:37;15.31;84.80
51878;SHT31;37911;51.526;11.536;2022-10-16T01:09:53;15.29;84.72
51878;SHT31;37911;51.526;11.536;2022-10-16T01:13:05;15.27;84.57
51878;SHT31;37911;51.526;11.536;2022-10-16T01:16:13;15.20;84.96
51878;SHT31;37911;51.526;11.536;2022-10-16T01:19:30;15.20;85.55
51878;SHT31;37911;51.526;11.536;2022-10-16T01:22:57;15.17;85.54
51878;SHT31;37911;51.526;11.536;2022-10-16T01:26:14;15.14;85.61
51878;SHT31;37911;51.526;11.536;2022-10-16T01:29:26;15.16;85.59
51878;SHT31;37911;51.526;11.536;2022-10-16T01:32:34;15.16;85.46
51878;SHT31;37911;51.526;11.536;2022-10-16T01:35:42;15.20;85.96
51878;SHT31;37911;51.526;11.536;2022-10-16T01:38:48;15.27;86.19
51878;SHT31;37911;51.526;11.536;2022-10-16T01:41:57;15.24;86.04
51878;SHT31;37911;51.526;11.536;2022-10-16T01:45:07;15.17;85.64
51878;SHT31;37911;51.526;11.536;2022-10-16T01:48:13;15.06;85.63
51878;SHT31;37911;51.526;11.536;2022-10-16T01:51:19;15.00;85.69
51878;SHT31;37911;51.526;11.536;2022-10-16T01:54:25;14.97;85.83
51878;SHT31;37911;51.526;11.536;2022-10-16T01:57:32;14.92;86.08
51878;SHT31;37911;51.526;11.536;2022-10-16T02:00:41;14.95;86.22
51878;SHT31;37911;51.526;11.536;2022-10-16T02:03:50;15.02;86.76
51878;SHT31;37911;51.526;11.536;2022-10-16T02:06:55;15.10;87.36
51878;SHT31;37911;51.526;11.536;2022-10-16T02:10:00;15.14;86.99
51878;SHT31;37911;51.526;11.536;2022-10-16T02:13:08;15.16;86.73
51878;SHT31;37911;51.526;11.536;2022-10-16T02:16:15;15.17;86.73
51878;SHT31;37911;51.526;11.536;2022-10-16T02:19:20;15.14;86.52
51878;SHT31;37911;51.526;11.536;2022-10-16T02:22:27;15.09;86.17
51878;SHT31;37911;51.526;11.536;2022-10-16T02:25:32;15.03;86.08
51878;SHT31;37911;51.526;11.536;2022-10-16T02:28:40;14.97;86.15
51878;SHT31;37911;51.526;11.536;2022-10-16T02:31:50;14.87;86.10
51878;SHT31;37911;51.526;11.536;2022-10-16T02:34:56;14.80;86.32
51878;SHT31;37911;51.526;11.536;2022-10-16T02:38:01;14.77;86.42
51878;SHT31;37911;51.526;11.536;2022-10-16T02:41:05;14.73;86.78
51878;SHT31;37911;51.526;11.536;2022-10-16T02:44:09;14.72;86.92
51878;SHT31;37911;51.526;11.536;2022-10-16T02:47:15;14.71;87.03
51878;SHT31;37911;51.526;11.536;2022-10-16T02:50:19;14.73;87.00
51878;SHT31;37911;51.526;11.536;2022-10-16T02:53:23;14.64;86.92
51878;SHT31;37911;51.526;11.536;2022-10-16T02:56:27;14.62;87.11
51878;SHT31;37911;51.526;11.536;2022-10-16T02:59:33;14.61;87.24
51878;SHT31;37911;51.526;11.536;2022-10-16T03:02:39;14.58;87.22
51878;SHT31;37911;51.526;11.536;2022-10-16T03:05:44;14.52;87.30
51878;SHT31;37911;51.526;11.536;2022-10-16T03:08:47;14.52;87.47
51878;SHT31;37911;51.526;11.536;2022-10-16T03:11:51;14.56;87.54
51878;SHT31;37911;51.526;11.536;2022-10-16T03:14:55;14.52;87.50
51878;SHT31;37911;51.526;11.536;2022-10-16T03:18:01;14.51;87.50
51878;SHT31;37911;51.526;11.536;2022-10-16T03:21:05;14.44;87.46
51878;SHT31;37911;51.526;11.536;2022-10-16T03:24:09;14.41;87.42
51878;SHT31;37911;51.526;11.536;2022-10-16T03:27:13;14.34;87.43
51878;SHT31;37911;51.526;11.536;2022-10-16T03:30:16;14.28;87.37
51878;SHT31;37911;51.526;11.536;2022-10-16T03:33:23;14.22;87.60
51878;SHT31;37911;51.526;11.536;2022-10-16T03:36:26;14.17;87.90
51878;SHT31;37911;51.526;11.536;2022-10-16T03:39:30;14.15;88.17
51878;SHT31;37911;51.526;11.536;2022-10-16T03:42:34;14.15;88.32
51878;SHT31;37911;51.526;11.536;2022-10-16T03:45:38;14.20;88.40
51878;SHT31;37911;51.526;11.536;2022-10-16T03:48:44;14.21;88.52
51878;SHT31;37911;51.526;11.536;2022-10-16T03:51:48;14.21;88.62
51878;SHT31;37911;51.526;11.536;2022-10-16T03:54:52;14.24;88.49
51878;SHT31;37911;51.526;11.536;2022-10-16T03:57:56;14.26;88.65
51878;SHT31;37911;51.526;11.536;2022-10-16T04:00:59;14.26;88.63
51878;SHT31;37911;51.526;11.536;2022-10-16T04:04:06;14.28;88.37
51878;SHT31;37911;51.526;11.536;2022-10-16T04:07:09;14.29;88.37
51878;SHT31;37911;51.526;11.536;2022-10-16T04:10:13;14.25;88.32
51878;SHT31;37911;51.526;11.536;2022-10-16T04:13:17;14.18;88.35
51878;SHT31;37911;51.526;11.536;2022-10-16T04:16:21;14.14;88.29
51878;SHT31;37911;51.526;11.536;2022-10-16T04:19:28;14.14;88.43
51878;SHT31;37911;51.526;11.536;2022-10-16T04:22:31;14.15;88.48
51878;SHT31;37911;51.526;11.536;2022-10-16T04:25:35;14.21;88.46
51878;SHT31;37911;51.526;11.536;2022-10-16T04:28:39;14.25;88.62
51878;SHT31;37911;51.526;11.536;2022-10-16T04:31:43;14.36;88.62
51878;SHT31;37911;51.526;11.536;2022-10-16T04:34:49;14.41;88.46
51878;SHT31;37911;51.526;11.536;2022-10-16T04:37:53;14.45;88.44
51878;SHT31;37911;51.526;11.536;2022-10-16T04:40:56;14.55;88.40
51878;SHT31;37911;51.526;11.536;2022-10-16T04:44:00;14.62;88.22
51878;SHT31;37911;51.526;11.536;2022-10-16T04:47:04;14.66;88.12
51878;SHT31;37911;51.526;11.536;2022-10-16T04:50:11;14.71;87.82
51878;SHT31;37911;51.526;11.536;2022-10-16T04:53:15;14.76;87.51
51878;SHT31;37911;51.526;11.536;2022-10-16T04:56:18;14.75;87.42
51878;SHT31;37911;51.526;11.536;2022-10-16T04:59:22;14.83;87.27
51878;SHT31;37911;51.526;11.536;2022-10-16T05:02:26;14.83;86.92
51878;SHT31;37911;51.526;11.536;2022-10-16T05:05:33;14.86;86.98
51878;SHT31;37911;51.526;11.536;2022-10-16T05:08:36;14.89;86.89
51878;SHT31;37911;51.526;11.536;2022-10-16T05:11:40;14.86;86.85
51878;SHT31;37911;51.526;11.536;2022-10-16T05:14:44;14.90;86.83
51878;SHT31;37911;51.526;11.536;2022-10-16T05:17:47;14.87;86.84
51878;SHT31;37911;51.526;11.536;2022-10-16T05:20:57;14.87;86.78
51878;SHT31;37911;51.526;11.536;2022-10-16T05:24:01;14.86;86.70
51878;SHT31;37911;51.526;11.536;2022-10-16T05:27:05;14.86;86.65
51878;SHT31;37911;51.526;11.536;2022-10-16T05:30:09;14.86;86.55
51878;SHT31;37911;51.526;11.536;2022-10-16T05:33:13;14.86;86.54
51878;SHT31;37911;51.526;11.536;2022-10-16T05:36:21;14.83;86.50
51878;SHT31;37911;51.526;11.536;2022-10-16T05:39:27;14.83;86.39
51878;SHT31;37911;51.526;11.536;2022-10-16T05:42:31;14.80;86.35
51878;SHT31;37911;51.526;11.536;2022-10-16T05:45:34;14.77;86.33
51878;SHT31;37911;51.526;11.536;2022-10-16T05:48:38;14.80;86.19
51878;SHT31;37911;51.526;11.536;2022-10-16T05:51:44;14.76;86.22
51878;SHT31;37911;51.526;11.536;2022-10-16T05:54:48;14.80;86.20
51878;SHT31;37911;51.526;11.536;2022-10-16T05:57:54;14.79;86.14
51878;SHT31;37911;51.526;11.536;2022-10-16T06:01:00;14.83;86.02
51878;SHT31;37911;51.526;11.536;2022-10-16T06:04:04;14.87;85.84
51878;SHT31;37911;51.526;11.536;2022-10-16T06:07:11;14.85;85.86
51878;SHT31;37911;51.526;11.536;2022-10-16T06:10:14;14.83;85.93
51878;SHT31;37911;51.526;11.536;2022-10-16T06:13:18;14.83;85.91
51878;SHT31;37911;51.526;11.536;2022-10-16T06:16:24;14.80;85.82
51878;SHT31;37911;51.526;11.536;2022-10-16T06:19:27;14.82;85.89
51878;SHT31;37911;51.526;11.536;2022-10-16T06:22:34;14.85;85.97
51878;SHT31;37911;51.526;11.536;2022-10-16T06:25:38;14.83;85.98
51878;SHT31;37911;51.526;11.536;2022-10-16T06:28:42;14.85;85.95
51878;SHT31;37911;51.526;11.536;2022-10-16T06:31:46;14.86;85.66
51878;SHT31;37911;51.526;11.536;2022-10-16T06:34:50;14.92;85.80
51878;SHT31;37911;51.526;11.536;2022-10-16T06:37:56;14.95;85.65
51878;SHT31;37911;51.526;11.536;2022-10-16T06:41:00;15.02;85.50
51878;SHT31;37911;51.526;11.536;2022-10-16T06:44:05;15.02;85.44
51878;SHT31;37911;51.526;11.536;2022-10-16T06:47:10;15.13;85.07
51878;SHT31;37911;51.526;11.536;2022-10-16T06:50:15;15.17;84.67
51878;SHT31;37911;51.526;11.536;2022-10-16T06:53:21;15.19;84.82
51878;SHT31;37911;51.526;11.536;2022-10-16T06:56:28;15.22;84.84
51878;SHT31;37911;51.526;11.536;2022-10-16T06:59:32;15.26;84.73
51878;SHT31;37911;51.526;11.536;2022-10-16T07:02:36;15.27;84.74
51878;SHT31;37911;51.526;11.536;2022-10-16T07:05:41;15.30;84.48
51878;SHT31;37911;51.526;11.536;2022-10-16T07:08:48;15.31;84.35
51878;SHT31;37911;51.526;11.536;2022-10-16T07:11:51;15.30;84.25
51878;SHT31;37911;51.526;11.536;2022-10-16T07:14:55;15.34;84.38
51878;SHT31;37911;51.526;11.536;2022-10-16T07:17:59;15.37;84.23
51878;SHT31;37911;51.526;11.536;2022-10-16T07:21:04;15.46;84.07
51878;SHT31;37911;51.526;11.536;2022-10-16T07:24:11;15.53;83.89
51878;SHT31;37911;51.526;11.536;2022-10-16T07:27:15;15.61;83.59
51878;SHT31;37911;51.526;11.536;2022-10-16T07:30:19;15.72;83.15
51878;SHT31;37911;51.526;11.536;2022-10-16T07:33:22;15.85;82.89
51878;SHT31;37911;51.526;11.536;2022-10-16T07:36:26;15.97;81.99
51878;SHT31;37911;51.526;11.536;2022-10-16T07:39:32;16.06;82.05
51878;SHT31;37911;51.526;11.536;2022-10-16T07:42:36;16.16;81.50
51878;SHT31;37911;51.526;11.536;2022-10-16T07:45:46;16.23;81.08
51878;SHT31;37911;51.526;11.536;2022-10-16T07:48:51;16.30;80.66
51878;SHT31;37911;51.526;11.536;2022-10-16T07:51:54;16.35;80.36
51878;SHT31;37911;51.526;11.536;2022-10-16T07:55:00;16.41;80.13
51878;SHT31;37911;51.526;11.536;2022-10-16T07:58:04;16.46;79.84
51878;SHT31;37911;51.526;11.536;2022-10-16T08:01:10;16.51;79.80
51878;SHT31;37911;51.526;11.536;2022-10-16T08:04:13;16.65;79.57
51878;SHT31;37911;51.526;11.536;2022-10-16T08:07:17;16.69;79.29
51878;SHT31;37911;51.526;11.536;2022-10-16T08:10:25;16.84;79.00
51878;SHT31;37911;51.526;11.536;2022-10-16T08:13:29;16.88;78.55
51878;SHT31;37911;51.526;11.536;2022-10-16T08:16:32;17.03;78.46
51878;SHT31;37911;51.526;11.536;2022-10-16T08:19:36;17.07;77.76
51878;SHT31;37911;51.526;11.536;2022-10-16T08:22:39;17.10;77.60
51878;SHT31;37911;51.526;11.536;2022-10-16T08:25:45;17.14;77.68
51878;SHT31;37911;51.526;11.536;2022-10-16T08:28:49;17.17;77.20
51878;SHT31;37911;51.526;11.536;2022-10-16T08:31:53;17.30;76.93
51878;SHT31;37911;51.526;11.536;2022-10-16T08:34:56;17.37;76.70
51878;SHT31;37911;51.526;11.536;2022-10-16T08:38:00;17.45;76.26
51878;SHT31;37911;51.526;11.536;2022-10-16T08:41:20;17.48;76.13
51878;SHT31;37911;51.526;11.536;2022-10-16T08:44:38;17.50;75.71
51878;SHT31;37911;51.526;11.536;2022-10-16T08:47:48;17.60;75.85
51878;SHT31;37911;51.526;11.536;2022-10-16T08:50:53;17.61;75.59
51878;SHT31;37911;51.526;11.536;2022-10-16T08:53:58;17.68;75.26
51878;SHT31;37911;51.526;11.536;2022-10-16T08:57:09;17.62;75.11
51878;SHT31;37911;51.526;11.536;2022-10-16T09:00:15;17.77;74.60
51878;SHT31;37911;51.526;11.536;2022-10-16T09:03:27;17.91;73.93
51878;SHT31;37911;51.526;11.536;2022-10-16T09:06:42;18.01;73.09
51878;SHT31;37911;51.526;11.536;2022-10-16T09:10:02;18.13;72.95
51878;SHT31;37911;51.526;11.536;2022-10-16T09:13:17;18.08;72.13
51878;SHT31;37911;51.526;11.536;2022-10-16T09:16:25;18.17;71.27
51878;SHT31;37911;51.526;11.536;2022-10-16T09:19:33;18.21;71.39
51878;SHT31;37911;51.526;11.536;2022-10-16T09:22:39;18.26;71.54
51878;SHT31;37911;51.526;11.536;2022-10-16T09:25:45;18.23;71.25
51878;SHT31;37911;51.526;11.536;2022-10-16T09:28:52;18.23;71.49
51878;SHT31;37911;51.526;11.536;2022-10-16T09:31:57;18.28;71.23
51878;SHT31;37911;51.526;11.536;2022-10-16T09:35:13;18.28;71.27
51878;SHT31;37911;51.526;11.536;2022-10-16T09:38:23;18.42;71.05
51878;SHT31;37911;51.526;11.536;2022-10-16T09:41:28;18.56;70.88
51878;SHT31;37911;51.526;11.536;2022-10-16T09:44:34;18.50;70.85
51878;SHT31;37911;51.526;11.536;2022-10-16T09:47:42;18.52;70.84
51878;SHT31;37911;51.526;11.536;2022-10-16T09:50:55;18.52;70.60
51878;SHT31;37911;51.526;11.536;2022-10-16T09:54:00;18.34;71.03
51878;SHT31;37911;51.526;11.536;2022-10-16T09:57:05;18.36;71.27
51878;SHT31;37911;51.526;11.536;2022-10-16T10:00:16;18.42;71.02
51878;SHT31;37911;51.526;11.536;2022-10-16T10:03:33;18.54;70.49
51878;SHT31;37911;51.526;11.536;2022-10-16T10:06:41;18.57;70.64
51878;SHT31;37911;51.526;11.536;2022-10-16T10:09:46;18.52;70.65
51878;SHT31;37911;51.526;11.536;2022-10-16T10:12:50;18.63;70.43
51878;SHT31;37911;51.526;11.536;2022-10-16T10:15:57;18.57;70.62
51878;SHT31;37911;51.526;11.536;2022-10-16T10:19:00;18.44;70.97
51878;SHT31;37911;51.526;11.536;2022-10-16T10:22:15;18.42;71.24
51878;SHT31;37911;51.526;11.536;2022-10-16T10:25:26;18.52;70.98
51878;SHT31;37911;51.526;11.536;2022-10-16T10:28:55;18.63;70.52
51878;SHT31;37911;51.526;11.536;2022-10-16T10:32:11;18.59;70.76
51878;SHT31;37911;51.526;11.536;2022-10-16T10:35:22;18.61;70.88
51878;SHT31;37911;51.526;11.536;2022-10-16T10:38:33;18.71;70.79
51878;SHT31;37911;51.526;11.536;2022-10-16T10:42:04;18.77;70.85
51878;SHT31;37911;51.526;11.536;2022-10-16T10:45:18;18.80;70.62
51878;SHT31;37911;51.526;11.536;2022-10-16T10:48:50;18.68;71.08
51878;SHT31;37911;51.526;11.536;2022-10-16T10:52:02;18.60;71.21
51878;SHT31;37911;51.526;11.536;2022-10-16T10:55:15;18.53;71.65
51878;SHT31;37911;51.526;11.536;2022-10-16T10:58:36;18.54;71.87
51878;SHT31;37911;51.526;11.536;2022-10-16T11:01:48;18.87;71.30
51878;SHT31;37911;51.526;11.536;2022-10-16T11:05:18;19.44;69.62
51878;SHT31;37911;51.526;11.536;2022-10-16T11:08:30;20.10;67.30
51878;SHT31;37911;51.526;11.536;2022-10-16T11:11:40;20.73;65.75
51878;SHT31;37911;51.526;11.536;2022-10-16T11:14:48;21.12;63.88
51878;SHT31;37911;51.526;11.536;2022-10-16T11:17:59;21.42;62.52
51878;SHT31;37911;51.526;11.536;2022-10-16T11:21:09;21.80;61.69
51878;SHT31;37911;51.526;11.536;2022-10-16T11:24:18;21.93;59.32
51878;SHT31;37911;51.526;11.536;2022-10-16T11:27:29;21.96;59.71
51878;SHT31;37911;51.526;11.536;2022-10-16T11:30:41;22.13;58.77
51878;SHT31;37911;51.526;11.536;2022-10-16T11:33:49;22.51;58.31
51878;SHT31;37911;51.526;11.536;2022-10-16T11:37:02;22.67;57.14
51878;SHT31;37911;51.526;11.536;2022-10-16T11:40:19;22.39;57.66
51878;SHT31;37911;51.526;11.536;2022-10-16T11:43:27;21.90;58.26
51878;SHT31;37911;51.526;11.536;2022-10-16T11:46:32;21.46;59.28
51878;SHT31;37911;51.526;11.536;2022-10-16T11:49:40;21.41;60.92
51878;SHT31;37911;51.526;11.536;2022-10-16T11:52:52;21.46;60.32
51878;SHT31;37911;51.526;11.536;2022-10-16T11:55:56;21.34;60.46
51878;SHT31;37911;51.526;11.536;2022-10-16T11:59:03;21.45;59.02
51878;SHT31;37911;51.526;11.536;2022-10-16T12:02:17;21.63;59.14
51878;SHT31;37911;51.526;11.536;2022-10-16T12:05:29;21.85;57.80
51878;SHT31;37911;51.526;11.536;2022-10-16T12:08:40;21.92;57.04
51878;SHT31;37911;51.526;11.536;2022-10-16T12:11:43;21.89;57.19
51878;SHT31;37911;51.526;11.536;2022-10-16T12:14:47;21.97;57.40
51878;SHT31;37911;51.526;11.536;2022-10-16T12:17:51;22.00;56.32
51878;SHT31;37911;51.526;11.536;2022-10-16T12:20:55;22.09;56.57
51878;SHT31;37911;51.526;11.536;2022-10-16T12:24:28;22.36;56.35
51878;SHT31;37911;51.526;11.536;2022-10-16T12:27:33;22.53;54.54
51878;SHT31;37911;51.526;11.536;2022-10-16T12:30:37;22.10;55.18
51878;SHT31;37911;51.526;11.536;2022-10-16T12:33:42;21.78;56.11
51878;SHT31;37911;51.526;11.536;2022-10-16T12:36:55;21.67;57.08
51878;SHT31;37911;51.526;11.536;2022-10-16T12:40:15;21.66;56.94
51878;SHT31;37911;51.526;11.536;2022-10-16T12:43:36;21.90;55.70
51878;SHT31;37911;51.526;11.536;2022-10-16T12:46:40;21.97;55.23
51878;SHT31;37911;51.526;11.536;2022-10-16T12:49:53;21.72;56.23
51878;SHT31;37911;51.526;11.536;2022-10-16T12:52:57;21.63;55.63
51878;SHT31;37911;51.526;11.536;2022-10-16T12:56:15;21.53;56.19
51878;SHT31;37911;51.526;11.536;2022-10-16T12:59:29;21.39;56.41
51878;SHT31;37911;51.526;11.536;2022-10-16T13:03:02;21.39;55.77
51878;SHT31;37911;51.526;11.536;2022-10-16T13:06:19;21.67;55.48
51878;SHT31;37911;51.526;11.536;2022-10-16T13:09:35;21.88;55.16
51878;SHT31;37911;51.526;11.536;2022-10-16T13:16:20;22.41;53.86
51878;SHT31;37911;51.526;11.536;2022-10-16T13:19:30;22.65;52.90
51878;SHT31;37911;51.526;11.536;2022-10-16T13:22:41;22.81;51.76
51878;SHT31;37911;51.526;11.536;2022-10-16T13:26:00;22.79;51.67
51878;SHT31;37911;51.526;11.536;2022-10-16T13:29:07;22.96;52.38
51878;SHT31;37911;51.526;11.536;2022-10-16T13:32:11;22.96;50.84
51878;SHT31;37911;51.526;11.536;2022-10-16T13:35:21;22.87;50.40
51878;SHT31;37911;51.526;11.536;2022-10-16T13:38:26;22.78;50.87
51878;SHT31;37911;51.526;11.536;2022-10-16T13:41:30;22.71;51.10
51878;SHT31;37911;51.526;11.536;2022-10-16T13:44:41;22.76;51.55
51878;SHT31;37911;51.526;11.536;2022-10-16T13:47:45;22.76;51.01
51878;SHT31;37911;51.526;11.536;2022-10-16T13:50:59;22.53;51.70
51878;SHT31;37911;51.526;11.536;2022-10-16T13:54:02;22.36;51.91
51878;SHT31;37911;51.526;11.536;2022-10-16T13:57:06;22.14;52.75
51878;SHT31;37911;51.526;11.536;2022-10-16T14:00:24;21.92;53.44
51878;SHT31;37911;51.526;11.536;2022-10-16T14:03:30;21.63;53.66
51878;SHT31;37911;51.526;11.536;2022-10-16T14:06:36;21.50;53.88
51878;SHT31;37911;51.526;11.536;2022-10-16T14:09:48;21.49;54.22
51878;SHT31;37911;51.526;11.536;2022-10-16T14:12:57;21.56;54.69
51878;SHT31;37911;51.526;11.536;2022-10-16T14:16:07;21.65;53.86
51878;SHT31;37911;51.526;11.536;2022-10-16T14:19:16;21.63;54.05
51878;SHT31;37911;51.526;11.536;2022-10-16T14:22:27;21.58;54.47
51878;SHT31;37911;51.526;11.536;2022-10-16T14:25:32;21.55;54.10
51878;SHT31;37911;51.526;11.536;2022-10-16T14:28:37;21.58;54.13
51878;SHT31;37911;51.526;11.536;2022-10-16T14:31:54;21.55;54.82
51878;SHT31;37911;51.526;11.536;2022-10-16T14:34:58;21.46;54.67
51878;SHT31;37911;51.526;11.536;2022-10-16T14:38:03;21.34;55.69
51878;SHT31;37911;51.526;11.536;2022-10-16T14:41:08;21.18;55.94
51878;SHT31;37911;51.526;11.536;2022-10-16T14:44:12;21.08;56.25
51878;SHT31;37911;51.526;11.536;2022-10-16T14:47:20;20.98;56.32
51878;SHT31;37911;51.526;11.536;2022-10-16T14:50:26;20.92;56.83
51878;SHT31;37911;51.526;11.536;2022-10-16T14:53:30;20.84;56.54
51878;SHT31;37911;51.526;11.536;2022-10-16T14:56:42;20.74;57.32
51878;SHT31;37911;51.526;11.536;2022-10-16T14:59:47;20.70;57.40
51878;SHT31;37911;51.526;11.536;2022-10-16T15:02:54;20.63;57.42
51878;SHT31;37911;51.526;11.536;2022-10-16T15:05:58;20.61;57.41
51878;SHT31;37911;51.526;11.536;2022-10-16T15:09:01;20.58;57.67
51878;SHT31;37911;51.526;11.536;2022-10-16T15:12:04;20.55;57.72
51878;SHT31;37911;51.526;11.536;2022-10-16T15:15:30;20.41;58.16
51878;SHT31;37911;51.526;11.536;2022-10-16T15:18:38;20.36;58.78
51878;SHT31;37911;51.526;11.536;2022-10-16T15:21:42;20.27;58.65
51878;SHT31;37911;51.526;11.536;2022-10-16T15:24:46;20.20;58.84
51878;SHT31;37911;51.526;11.536;2022-10-16T15:27:49;20.19;58.87
51878;SHT31;37911;51.526;11.536;2022-10-16T15:30:55;20.08;59.25
51878;SHT31;37911;51.526;11.536;2022-10-16T15:34:02;20.00;59.30
51878;SHT31;37911;51.526;11.536;2022-10-16T15:37:08;19.90;59.65
51878;SHT31;37911;51.526;11.536;2022-10-16T15:40:15;19.83;60.00
51878;SHT31;37911;51.526;11.536;2022-10-16T15:43:18;19.78;59.89
51878;SHT31;37911;51.526;11.536;2022-10-16T15:46:23;19.75;60.07
51878;SHT31;37911;51.526;11.536;2022-10-16T15:49:30;19.75;60.08
51878;SHT31;37911;51.526;11.536;2022-10-16T15:52:33;19.72;60.10
51878;SHT31;37911;51.526;11.536;2022-10-16T15:55:39;19.68;60.39
51878;SHT31;37911;51.526;11.536;2022-10-16T15:58:43;19.63;60.81
51878;SHT31;37911;51.526;11.536;2022-10-16T16:01:47;19.58;61.04
51878;SHT31;37911;51.526;11.536;2022-10-16T16:04:53;19.51;61.16
51878;SHT31;37911;51.526;11.536;2022-10-16T16:07:57;19.44;61.73
51878;SHT31;37911;51.526;11.536;2022-10-16T16:11:03;19.36;61.81
51878;SHT31;37911;51.526;11.536;2022-10-16T16:14:07;19.31;62.04
51878;SHT31;37911;51.526;11.536;2022-10-16T16:17:10;19.27;62.21
51878;SHT31;37911;51.526;11.536;2022-10-16T16:20:17;19.21;62.61
51878;SHT31;37911;51.526;11.536;2022-10-16T16:23:22;19.15;63.04
51878;SHT31;37911;51.526;11.536;2022-10-16T16:26:27;19.10;63.29
51878;SHT31;37911;51.526;11.536;2022-10-16T16:29:34;19.03;63.84
51878;SHT31;37911;51.526;11.536;2022-10-16T16:32:38;18.86;64.90
51878;SHT31;37911;51.526;11.536;2022-10-16T16:35:44;18.71;65.58
51878;SHT31;37911;51.526;11.536;2022-10-16T16:38:47;18.56;66.10
51878;SHT31;37911;51.526;11.536;2022-10-16T16:41:51;18.46;66.64
51878;SHT31;37911;51.526;11.536;2022-10-16T16:44:54;18.36;67.23
51878;SHT31;37911;51.526;11.536;2022-10-16T16:47:58;18.32;67.45
51878;SHT31;37911;51.526;11.536;2022-10-16T16:51:09;18.28;67.66
51878;SHT31;37911;51.526;11.536;2022-10-16T16:54:15;18.23;67.77
51878;SHT31;37911;51.526;11.536;2022-10-16T16:57:19;18.22;67.83
51878;SHT31;37911;51.526;11.536;2022-10-16T17:00:23;18.19;67.93
51878;SHT31;37911;51.526;11.536;2022-10-16T17:03:27;18.12;68.49
51878;SHT31;37911;51.526;11.536;2022-10-16T17:06:33;18.08;68.64
51878;SHT31;37911;51.526;11.536;2022-10-16T17:09:36;17.93;69.17
51878;SHT31;37911;51.526;11.536;2022-10-16T17:12:40;17.81;69.54
51878;SHT31;37911;51.526;11.536;2022-10-16T17:15:45;17.74;69.44
51878;SHT31;37911;51.526;11.536;2022-10-16T17:18:49;17.62;70.13
51878;SHT31;37911;51.526;11.536;2022-10-16T17:21:56;17.45;70.62
51878;SHT31;37911;51.526;11.536;2022-10-16T17:24:59;17.31;70.99
51878;SHT31;37911;51.526;11.536;2022-10-16T17:28:04;17.16;71.47
51878;SHT31;37911;51.526;11.536;2022-10-16T17:31:09;17.03;71.85
51878;SHT31;37911;51.526;11.536;2022-10-16T17:34:13;16.93;72.40
51878;SHT31;37911;51.526;11.536;2022-10-16T17:37:19;16.80;72.79
51878;SHT31;37911;51.526;11.536;2022-10-16T17:40:30;16.66;73.31
51878;SHT31;37911;51.526;11.536;2022-10-16T17:43:36;16.57;73.44
51878;SHT31;37911;51.526;11.536;2022-10-16T17:46:42;16.49;73.88
51878;SHT31;37911;51.526;11.536;2022-10-16T17:49:46;16.41;74.16
51878;SHT31;37911;51.526;11.536;2022-10-16T17:52:52;16.29;74.46
51878;SHT31;37911;51.526;11.536;2022-10-16T17:55:56;16.28;74.56
51878;SHT31;37911;51.526;11.536;2022-10-16T17:59:04;16.28;74.56
51878;SHT31;37911;51.526;11.536;2022-10-16T18:02:08;16.25;74.57
51878;SHT31;37911;51.526;11.536;2022-10-16T18:05:11;16.16;74.78
51878;SHT31;37911;51.526;11.536;2022-10-16T18:08:18;16.09;74.93
51878;SHT31;37911;51.526;11.536;2022-10-16T18:11:21;16.05;75.25
51878;SHT31;37911;51.526;11.536;2022-10-16T18:14:26;15.97;75.33
51878;SHT31;37911;51.526;11.536;2022-10-16T18:17:30;15.85;75.73
51878;SHT31;37911;51.526;11.536;2022-10-16T18:20:37;15.75;76.18
51878;SHT31;37911;51.526;11.536;2022-10-16T18:23:45;15.67;76.35
51878;SHT31;37911;51.526;11.536;2022-10-16T18:26:49;15.61;76.49
51878;SHT31;37911;51.526;11.536;2022-10-16T18:29:55;15.62;76.34
51878;SHT31;37911;51.526;11.536;2022-10-16T18:33:01;15.51;76.63
51878;SHT31;37911;51.526;11.536;2022-10-16T18:36:07;15.46;77.03
51878;SHT31;37911;51.526;11.536;2022-10-16T18:39:13;15.47;76.74
51878;SHT31;37911;51.526;11.536;2022-10-16T18:42:18;15.44;77.22
51878;SHT31;37911;51.526;11.536;2022-10-16T18:45:23;15.41;77.22
51878;SHT31;37911;51.526;11.536;2022-10-16T18:48:27;15.41;77.31
51878;SHT31;37911;51.526;11.536;2022-10-16T18:51:34;15.36;77.29
51878;SHT31;37911;51.526;11.536;2022-10-16T18:54:40;15.33;77.40
51878;SHT31;37911;51.526;11.536;2022-10-16T18:57:44;15.29;77.41
51878;SHT31;37911;51.526;11.536;2022-10-16T19:00:48;15.26;77.62
51878;SHT31;37911;51.526;11.536;2022-10-16T19:03:53;15.16;77.75
51878;SHT31;37911;51.526;11.536;2022-10-16T19:06:57;15.11;77.91
51878;SHT31;37911;51.526;11.536;2022-10-16T19:10:04;15.04;78.03
51878;SHT31;37911;51.526;11.536;2022-10-16T19:13:08;15.04;78.04
51878;SHT31;37911;51.526;11.536;2022-10-16T19:16:15;15.00;78.10
51878;SHT31;37911;51.526;11.536;2022-10-16T19:19:19;14.96;78.26
51878;SHT31;37911;51.526;11.536;2022-10-16T19:22:23;14.96;78.32
51878;SHT31;37911;51.526;11.536;2022-10-16T19:25:35;14.92;78.06